Airports & Charts

SJU | TJSJ – Luis Munoz Marin International Airport

San Juan, Puerto Rico Airspace Class: Class C

TJSJ 011656Z 04009KT 10SM -RA SCT036 SCT065 SCT080 29/24 A3004 RMK AO2 SLP172 P0002 T02890244

 

Flight Planner at SkyVector.com

Click Chart to Enlarge (Opens in Same Window)

 

AIRAC Cycle: 1501

AD – Airport Diagram
AIRPORT DIAGRAM    
SIDs – Standard Instrument Departures
ACONY ONE (RNAV) RNAV Turbojet  
CRSTL ONE RNAV  
GANBO ONE (RNAV) RNAV Turbojet  
GLADA TWO (RNAV) RNAV Turbojet  
HAMAR ONE (RNAV) RNAV Prop/Turboprop  
JAAWS NINE     
JETSS ONE     
SNGRA ONE (RNAV) RNAV Prop/Turboprop  
VERMO FIVE     
NOTE: Special Take-Off Minimums/Departure Procedures apply     
STARs – Standard Terminal Arrivals
BEANO THREE (RNAV) RNAV Turbojet  
CHAKA FOUR (RNAV) RNAV Prop/Turboprop  
JOSHE THREE (RNAV) (Cont.) RNAV Turbojet  
SAALR TWO (RNAV) RNAV Turbojet  
TROCO THREE (RNAV) RNAV Turbojet  
IAPs – Instrument Approach Procedures
ILS OR LOC RWY 08     
ILS OR LOC RWY 10     
RNAV (GPS) RWY 08 RNAV  
RNAV (GPS) RWY 10 RNAV     
RNAV (GPS) RWY 26 RNAV     
VOR OR TACAN RWY 08     
VOR OR TACAN RWY 10     
VOR OR TACAN RWY 26     
NDB RWY 08     
BRIDGE VISUAL RWY 10     
LAGOON VISUAL RWY 08     
NOTE: Special Alternate Minimums apply     

 

 

 

SXM | TNCM – Princess Juliana International Airport

Philipsburg, St. Maarten Airspace Class: Class C

TNCM 011100Z 09007KT 9999 FEW020 28/23 Q1018 NOSIG

 

Flight Planner at SkyVector.com

Click Chart to Enlarge (Opens in Same Window)

 

Chart Packet
SXM Chart Packet    

 

 

STT | TIST – Cyril E King Airport

Charlotte Amalie West, St. Thomas, U.S.V.I. Airspace Class: Class C

TIST 011653Z 12009KT 10SM FEW030 30/23 A3005 RMK AO2 SLP175 T03000228 PNO

 

Flight Planner at SkyVector.com

 Click Chart to Enlarge (Opens in Same Window)

 

AIRAC Cycle: 1501

AD – Airport Diagram
AIRPORT DIAGRAM    
SIDs – Standard Instrument Departures
PALCO SIX     
NOTE: Special Take-Off Minimums/Departure Procedures apply     
IAPs – Instrument Approach Procedures
ILS RWY 10     
RNAV (GPS) RWY 10 RNAV  
VOR-A     
NOTE: Special Alternate Minimums apply     

 

 

STX | TISX – Henry E Rohlsen Airport

Christiansted, St. Croix, U.S.V.I. Airspace Class: Class D

TISX 011653Z 12010KT 10SM FEW026 32/22 A3005 RMK AO2 SLP175 T03170217

 

Flight Planner at SkyVector.com

Click Chart to Enlarge (Opens in Same Window)

 

AIRAC Cycle: 1501

AD – Airport Diagram
AIRPORT DIAGRAM    
SIDs – Standard Instrument Departures
HAMILTON SEVEN Prop/Turboprop  
SNOOZ THREE Prop/Turboprop  
NOTE: Special Take-Off Minimums/Departure Procedures apply     
IAPs – Instrument Approach Procedures
ILS OR LOC RWY 10     
RNAV (GPS) RWY 10 RNAV    
RNAV (GPS) RWY 28 RNAV     
VOR RWY 28     
NOTE: Special Alternate Minimums apply     

 

 

BQN | TJBQ – Rafael Hernandez Airport

Aguadilla, Puerto Rico Airspace Class: Class D

TJBQ 011650Z 05011KT 10SM CLR A3006 RMK LTG DSNT SE

 

Flight Planner at SkyVector.com

Click Chart to Enlarge (Opens in Same Window)

 

AIRAC Cycle: 1501

AD – Airport Diagram
AIRPORT DIAGRAM
IAPs – Instrument Approach Procedures
RNAV (GPS) RWY 08 RNAV      
RNAV (GPS) RWY 26 RNAV    
VOR/DME OR TACAN RWY 08     
VOR/DME OR TACAN RWY 26     
VOR RWY 08     
NOTE: Special Take-Off Minimums/Departure Procedures apply     

 

 

SIG | TJIG – Fernando Luis Ribas Dominicci Airport

San Juan, Puerto Rico Airspace Class: Class D

TJIG 011745Z 10011KT 10SM SCT025 BKN060 29/24 A3002

 

Flight Planner at SkyVector.com

Click Chart to Enlarge (Opens in Same Window)

 

AIRAC Cycle: 1501

AD – Airport Diagram
AIRPORT DIAGRAM
IAPs – Instrument Approach Procedures
RNAV (GPS) RWY 09 RNAV      

 

 

AXA | TQPF – Clayton J Lloyd International Airport

The Valley, Anguilla Airspace Class: Class D

TQPF 011700Z 11011KT 9999 FEW021 30/22 Q1018

 

Flight Planner at SkyVector.com

Click Chart to Enlarge (Opens in Same Window)

 

Chart Packet
AXA Chart Packet    

 

 

SBH | TFFJ – St. Barthélemy Airport

St.Jean, St. Barthélemy Airspace Class: Class E

TNCM 011100Z 09007KT 9999 FEW020 28/23 Q1018 NOSIG

 

Flight Planner at SkyVector.com

Click Chart to Enlarge (Opens in Same Window)

 

Chart Packet
SBH Chart Packet    

 

 

SFG | TFFG – Grand Case Airport

Grand Case, St. Martin Airspace Class: Class E

TNCM 011100Z 09007KT 9999 FEW020 28/23 Q1018 NOSIG

 

Flight Planner at SkyVector.com

Click Chart to Enlarge (Opens in Same Window)

 

Chart Packet
SFG Chart Packet    

 

 

PSE | TJPS – Mercedita Airport

Ponce, Puerto Rico Airspace Class: Class E

TJPS 310650Z 00000KT 8SM SCT020 BKN030 22/22 A3001

 

Flight Planner at SkyVector.com

Click Chart to Enlarge (Opens in Same Window) 

 

AIRAC Cycle: 1501

IAPs – Instrument Approach Procedures
RNAV (GPS) RWY 12 RNAV  
RNAV (GPS) RWY 30 RNAV  
VOR-A     
NOTE: Special Take-Off Minimums/Departure Procedures apply     

 

 

MAZ | TJMZ – Eugenio Maria de Hostos Airport

Mayaguez, Puerto Rico Airspace Class: Class E

TJMZ 101550Z 11009KT 10SM SCT050 33/24

 

Flight Planner at SkyVector.com

Click Chart to Enlarge (Opens in Same Window) 

 

AIRAC Cycle: 1501

AD – Airport Diagram
AIRPORT DIAGRAM    
IAPs – Instrument Approach Procedures
RNAV (GPS) RWY 09 RNAV    
VOR RWY 09     
NOTE: Special Alternate Minimums apply     
NOTE: Special Take-Off Minimums/Departure Procedures apply     

 

VQS | TJVQ – Antonio Rivera Rodriguez Airport

Isla de Vieques, Puerto Rico Airspace Class: Class G

TJNR 011753Z AUTO 09011KT 8SM SCT015 BKN032 OVC095 31/24 A3004 RMK AO2 SLP172 T03110239 10322 20294 58013

 

Flight Planner at SkyVector.com

Click Chart to Enlarge (Opens in Same Window) 

 

AIRAC Cycle: 1501

SIDs – Standard Instrument Departures
VEDAS THREE (RNAV) RNAV      
NOTE: Special Take-Off Minimums/Departure Procedures apply     
IAPs – Instrument Approach Procedures
RNAV (GPS) RWY 09 RNAV